sensor_id;sensor_type;location;lat;lon;timestamp;pressure;altitude;pressure_sealevel;temperature;humidity
39739;BME280;25422;48.286;8.484;2022-10-13T00:01:13;94633.38;;;9.64;100.00
39739;BME280;25422;48.286;8.484;2022-10-13T00:03:40;94631.31;;;9.67;100.00
39739;BME280;25422;48.286;8.484;2022-10-13T00:06:08;94630.63;;;9.65;100.00
39739;BME280;25422;48.286;8.484;2022-10-13T00:08:35;94621.59;;;9.59;100.00
39739;BME280;25422;48.286;8.484;2022-10-13T00:11:07;94615.41;;;9.60;100.00
39739;BME280;25422;48.286;8.484;2022-10-13T00:13:33;94614.28;;;9.63;100.00
39739;BME280;25422;48.286;8.484;2022-10-13T00:16:01;94618.16;;;9.59;100.00
39739;BME280;25422;48.286;8.484;2022-10-13T00:18:28;94616.81;;;9.55;100.00
39739;BME280;25422;48.286;8.484;2022-10-13T00:20:55;94615.06;;;9.55;100.00
39739;BME280;25422;48.286;8.484;2022-10-13T00:23:21;94610.94;;;9.53;100.00
39739;BME280;25422;48.286;8.484;2022-10-13T00:25:48;94617.88;;;9.62;100.00
39739;BME280;25422;48.286;8.484;2022-10-13T00:28:16;94612.81;;;9.60;100.00
39739;BME280;25422;48.286;8.484;2022-10-13T00:30:42;94621.44;;;9.61;100.00
39739;BME280;25422;48.286;8.484;2022-10-13T00:33:08;94613.25;;;9.56;100.00
39739;BME280;25422;48.286;8.484;2022-10-13T00:35:39;94614.91;;;9.57;100.00
39739;BME280;25422;48.286;8.484;2022-10-13T00:38:06;94619.81;;;9.60;100.00
39739;BME280;25422;48.286;8.484;2022-10-13T00:40:32;94623.91;;;9.62;100.00
39739;BME280;25422;48.286;8.484;2022-10-13T00:42:57;94625.72;;;9.62;100.00
39739;BME280;25422;48.286;8.484;2022-10-13T00:45:27;94630.25;;;9.60;100.00
39739;BME280;25422;48.286;8.484;2022-10-13T00:47:57;94619.22;;;9.66;100.00
39739;BME280;25422;48.286;8.484;2022-10-13T00:50:29;94618.53;;;9.64;100.00
39739;BME280;25422;48.286;8.484;2022-10-13T00:52:58;94628.31;;;9.62;100.00
39739;BME280;25422;48.286;8.484;2022-10-13T00:55:29;94630.47;;;9.67;100.00
39739;BME280;25422;48.286;8.484;2022-10-13T00:57:55;94620.84;;;9.67;100.00
39739;BME280;25422;48.286;8.484;2022-10-13T01:00:28;94621.66;;;9.68;100.00
39739;BME280;25422;48.286;8.484;2022-10-13T01:02:54;94616.75;;;9.65;100.00
39739;BME280;25422;48.286;8.484;2022-10-13T01:05:20;94616.22;;;9.61;100.00
39739;BME280;25422;48.286;8.484;2022-10-13T01:07:48;94617.09;;;9.70;100.00
39739;BME280;25422;48.286;8.484;2022-10-13T01:11:11;94606.78;;;9.68;100.00
39739;BME280;25422;48.286;8.484;2022-10-13T01:21:35;94604.97;;;9.42;100.00
39739;BME280;25422;48.286;8.484;2022-10-13T01:27:00;94592.78;;;9.25;100.00
39739;BME280;25422;48.286;8.484;2022-10-13T01:32:22;94577.25;;;9.23;100.00
39739;BME280;25422;48.286;8.484;2022-10-13T01:35:12;94583.16;;;9.25;100.00
39739;BME280;25422;48.286;8.484;2022-10-13T01:37:46;94582.63;;;9.22;100.00
39739;BME280;25422;48.286;8.484;2022-10-13T01:40:27;94579.16;;;9.13;100.00
39739;BME280;25422;48.286;8.484;2022-10-13T01:43:01;94578.09;;;9.06;100.00
39739;BME280;25422;48.286;8.484;2022-10-13T01:45:34;94568.56;;;8.97;100.00
39739;BME280;25422;48.286;8.484;2022-10-13T01:48:02;94572.59;;;8.91;100.00
39739;BME280;25422;48.286;8.484;2022-10-13T01:50:31;94564.69;;;8.83;100.00
39739;BME280;25422;48.286;8.484;2022-10-13T01:53:00;94565.00;;;8.80;100.00
39739;BME280;25422;48.286;8.484;2022-10-13T01:55:26;94562.38;;;8.80;100.00
39739;BME280;25422;48.286;8.484;2022-10-13T01:57:53;94571.16;;;8.78;100.00
39739;BME280;25422;48.286;8.484;2022-10-13T02:00:20;94570.22;;;8.80;100.00
39739;BME280;25422;48.286;8.484;2022-10-13T02:03:04;94576.38;;;8.78;100.00
39739;BME280;25422;48.286;8.484;2022-10-13T02:11:17;94573.31;;;8.65;100.00
39739;BME280;25422;48.286;8.484;2022-10-13T02:13:53;94575.84;;;8.57;100.00
39739;BME280;25422;48.286;8.484;2022-10-13T02:16:28;94575.63;;;8.50;100.00
39739;BME280;25422;48.286;8.484;2022-10-13T02:18:56;94577.94;;;8.43;100.00
39739;BME280;25422;48.286;8.484;2022-10-13T02:21:22;94579.59;;;8.44;100.00
39739;BME280;25422;48.286;8.484;2022-10-13T02:23:49;94580.81;;;8.50;100.00
39739;BME280;25422;48.286;8.484;2022-10-13T02:26:16;94579.41;;;8.56;100.00
39739;BME280;25422;48.286;8.484;2022-10-13T02:28:43;94577.03;;;8.63;100.00
39739;BME280;25422;48.286;8.484;2022-10-13T02:31:08;94574.16;;;8.66;100.00
39739;BME280;25422;48.286;8.484;2022-10-13T02:33:34;94574.31;;;8.64;100.00
39739;BME280;25422;48.286;8.484;2022-10-13T02:35:59;94581.59;;;8.60;100.00
39739;BME280;25422;48.286;8.484;2022-10-13T02:38:25;94573.53;;;8.54;100.00
39739;BME280;25422;48.286;8.484;2022-10-13T02:40:50;94576.97;;;8.54;100.00
39739;BME280;25422;48.286;8.484;2022-10-13T02:43:16;94580.56;;;8.53;100.00
39739;BME280;25422;48.286;8.484;2022-10-13T02:45:42;94580.03;;;8.50;100.00
39739;BME280;25422;48.286;8.484;2022-10-13T02:48:07;94580.03;;;8.50;100.00
39739;BME280;25422;48.286;8.484;2022-10-13T02:50:33;94578.56;;;8.37;100.00
39739;BME280;25422;48.286;8.484;2022-10-13T02:52:59;94575.72;;;8.31;100.00
39739;BME280;25422;48.286;8.484;2022-10-13T02:55:24;94573.31;;;8.19;100.00
39739;BME280;25422;48.286;8.484;2022-10-13T02:57:54;94576.94;;;8.08;100.00
39739;BME280;25422;48.286;8.484;2022-10-13T03:00:20;94574.94;;;7.92;100.00
39739;BME280;25422;48.286;8.484;2022-10-13T03:02:45;94573.72;;;7.87;100.00
39739;BME280;25422;48.286;8.484;2022-10-13T03:05:11;94567.81;;;7.85;100.00
39739;BME280;25422;48.286;8.484;2022-10-13T03:07:36;94568.00;;;7.73;100.00
39739;BME280;25422;48.286;8.484;2022-10-13T03:10:02;94567.06;;;7.65;100.00
39739;BME280;25422;48.286;8.484;2022-10-13T03:12:29;94570.09;;;7.60;100.00
39739;BME280;25422;48.286;8.484;2022-10-13T03:14:54;94568.91;;;7.54;100.00
39739;BME280;25422;48.286;8.484;2022-10-13T03:17:20;94566.03;;;7.48;100.00
39739;BME280;25422;48.286;8.484;2022-10-13T03:19:45;94553.56;;;7.41;100.00
39739;BME280;25422;48.286;8.484;2022-10-13T03:22:15;94554.66;;;7.39;100.00
39739;BME280;25422;48.286;8.484;2022-10-13T03:24:41;94550.00;;;7.42;100.00
39739;BME280;25422;48.286;8.484;2022-10-13T03:27:07;94545.91;;;7.40;100.00
39739;BME280;25422;48.286;8.484;2022-10-13T03:29:32;94536.28;;;7.40;100.00
39739;BME280;25422;48.286;8.484;2022-10-13T03:31:58;94539.19;;;7.37;100.00
39739;BME280;25422;48.286;8.484;2022-10-13T03:34:23;94544.00;;;7.32;100.00
39739;BME280;25422;48.286;8.484;2022-10-13T03:36:49;94543.63;;;7.27;100.00
39739;BME280;25422;48.286;8.484;2022-10-13T03:39:14;94550.03;;;7.23;100.00
39739;BME280;25422;48.286;8.484;2022-10-13T03:41:40;94552.53;;;7.24;100.00
39739;BME280;25422;48.286;8.484;2022-10-13T03:44:06;94563.31;;;7.20;100.00
39739;BME280;25422;48.286;8.484;2022-10-13T03:46:32;94561.81;;;7.17;100.00
39739;BME280;25422;48.286;8.484;2022-10-13T03:48:57;94555.13;;;7.15;100.00
39739;BME280;25422;48.286;8.484;2022-10-13T03:51:23;94554.84;;;7.18;100.00
39739;BME280;25422;48.286;8.484;2022-10-13T03:53:50;94551.84;;;7.13;100.00
39739;BME280;25422;48.286;8.484;2022-10-13T03:56:20;94545.00;;;7.12;100.00
39739;BME280;25422;48.286;8.484;2022-10-13T03:58:53;94540.06;;;7.08;100.00
39739;BME280;25422;48.286;8.484;2022-10-13T04:01:21;94547.84;;;7.18;100.00
39739;BME280;25422;48.286;8.484;2022-10-13T04:03:48;94545.09;;;7.30;100.00
39739;BME280;25422;48.286;8.484;2022-10-13T04:06:14;94536.59;;;7.37;100.00
39739;BME280;25422;48.286;8.484;2022-10-13T04:08:39;94543.13;;;7.51;100.00
39739;BME280;25422;48.286;8.484;2022-10-13T04:11:07;94533.50;;;7.62;100.00
39739;BME280;25422;48.286;8.484;2022-10-13T04:13:36;94546.06;;;7.76;100.00
39739;BME280;25422;48.286;8.484;2022-10-13T04:16:07;94545.16;;;7.95;100.00
39739;BME280;25422;48.286;8.484;2022-10-13T04:18:33;94547.00;;;8.13;100.00
39739;BME280;25422;48.286;8.484;2022-10-13T04:20:59;94547.50;;;8.16;100.00
39739;BME280;25422;48.286;8.484;2022-10-13T04:23:24;94549.25;;;8.25;100.00
39739;BME280;25422;48.286;8.484;2022-10-13T04:25:50;94553.59;;;8.35;100.00
39739;BME280;25422;48.286;8.484;2022-10-13T04:28:16;94547.41;;;8.36;100.00
39739;BME280;25422;48.286;8.484;2022-10-13T04:30:41;94554.13;;;8.38;100.00
39739;BME280;25422;48.286;8.484;2022-10-13T04:33:07;94560.81;;;8.41;100.00
39739;BME280;25422;48.286;8.484;2022-10-13T04:35:33;94556.44;;;8.41;100.00
39739;BME280;25422;48.286;8.484;2022-10-13T04:37:58;94554.41;;;8.45;100.00
39739;BME280;25422;48.286;8.484;2022-10-13T04:40:25;94557.09;;;8.53;100.00
39739;BME280;25422;48.286;8.484;2022-10-13T04:42:50;94553.94;;;8.50;100.00
39739;BME280;25422;48.286;8.484;2022-10-13T04:45:16;94548.56;;;8.51;100.00
39739;BME280;25422;48.286;8.484;2022-10-13T04:47:47;94549.69;;;8.49;100.00
39739;BME280;25422;48.286;8.484;2022-10-13T04:50:14;94543.50;;;8.50;100.00
39739;BME280;25422;48.286;8.484;2022-10-13T04:52:40;94545.16;;;8.51;100.00
39739;BME280;25422;48.286;8.484;2022-10-13T04:55:06;94538.69;;;8.55;100.00
39739;BME280;25422;48.286;8.484;2022-10-13T04:57:31;94536.06;;;8.55;100.00
39739;BME280;25422;48.286;8.484;2022-10-13T04:59:57;94539.06;;;8.60;100.00
39739;BME280;25422;48.286;8.484;2022-10-13T05:02:22;94535.63;;;8.59;100.00
39739;BME280;25422;48.286;8.484;2022-10-13T05:04:47;94528.75;;;8.58;100.00
39739;BME280;25422;48.286;8.484;2022-10-13T05:07:13;94528.53;;;8.52;100.00
39739;BME280;25422;48.286;8.484;2022-10-13T05:09:38;94537.34;;;8.51;100.00
39739;BME280;25422;48.286;8.484;2022-10-13T05:12:08;94539.66;;;8.54;100.00
39739;BME280;25422;48.286;8.484;2022-10-13T05:14:34;94538.22;;;8.59;100.00
39739;BME280;25422;48.286;8.484;2022-10-13T05:17:00;94544.28;;;8.60;100.00
39739;BME280;25422;48.286;8.484;2022-10-13T05:19:26;94544.56;;;8.57;100.00
39739;BME280;25422;48.286;8.484;2022-10-13T05:21:54;94537.19;;;8.52;100.00
39739;BME280;25422;48.286;8.484;2022-10-13T05:24:19;94534.88;;;8.49;100.00
39739;BME280;25422;48.286;8.484;2022-10-13T05:26:55;94529.94;;;8.46;100.00
39739;BME280;25422;48.286;8.484;2022-10-13T05:29:20;94533.63;;;8.43;100.00
39739;BME280;25422;48.286;8.484;2022-10-13T05:31:46;94539.25;;;8.49;100.00
39739;BME280;25422;48.286;8.484;2022-10-13T05:34:11;94536.34;;;8.52;100.00
39739;BME280;25422;48.286;8.484;2022-10-13T05:36:36;94541.28;;;8.55;100.00
39739;BME280;25422;48.286;8.484;2022-10-13T05:39:04;94526.16;;;8.58;100.00
39739;BME280;25422;48.286;8.484;2022-10-13T05:41:31;94535.47;;;8.61;100.00
39739;BME280;25422;48.286;8.484;2022-10-13T05:44:02;94537.09;;;8.62;100.00
39739;BME280;25422;48.286;8.484;2022-10-13T05:46:28;94530.78;;;8.65;100.00
39739;BME280;25422;48.286;8.484;2022-10-13T05:48:54;94525.56;;;8.65;100.00
39739;BME280;25422;48.286;8.484;2022-10-13T05:51:26;94533.31;;;8.56;100.00
39739;BME280;25422;48.286;8.484;2022-10-13T05:53:58;94523.91;;;8.64;100.00
39739;BME280;25422;48.286;8.484;2022-10-13T05:56:29;94525.19;;;8.59;100.00
39739;BME280;25422;48.286;8.484;2022-10-13T05:59:03;94515.88;;;8.57;100.00
39739;BME280;25422;48.286;8.484;2022-10-13T06:01:33;94520.81;;;8.60;100.00
39739;BME280;25422;48.286;8.484;2022-10-13T06:04:03;94522.66;;;8.68;100.00
39739;BME280;25422;48.286;8.484;2022-10-13T06:06:30;94522.28;;;8.63;100.00
39739;BME280;25422;48.286;8.484;2022-10-13T06:08:55;94541.13;;;8.56;100.00
39739;BME280;25422;48.286;8.484;2022-10-13T06:11:21;94532.78;;;8.53;100.00
39739;BME280;25422;48.286;8.484;2022-10-13T06:13:46;94528.16;;;8.47;100.00
39739;BME280;25422;48.286;8.484;2022-10-13T06:16:12;94525.72;;;8.45;100.00
39739;BME280;25422;48.286;8.484;2022-10-13T06:18:37;94528.31;;;8.45;100.00
39739;BME280;25422;48.286;8.484;2022-10-13T06:21:02;94532.81;;;8.43;100.00
39739;BME280;25422;48.286;8.484;2022-10-13T06:23:28;94538.59;;;8.47;100.00
39739;BME280;25422;48.286;8.484;2022-10-13T06:25:53;94530.16;;;8.53;100.00
39739;BME280;25422;48.286;8.484;2022-10-13T06:28:19;94527.94;;;8.58;100.00
39739;BME280;25422;48.286;8.484;2022-10-13T06:30:46;94520.81;;;8.60;100.00
39739;BME280;25422;48.286;8.484;2022-10-13T06:33:21;94521.47;;;8.62;100.00
39739;BME280;25422;48.286;8.484;2022-10-13T06:35:47;94523.09;;;8.63;100.00
39739;BME280;25422;48.286;8.484;2022-10-13T06:38:12;94530.19;;;8.71;100.00
39739;BME280;25422;48.286;8.484;2022-10-13T06:40:40;94522.00;;;8.66;100.00
39739;BME280;25422;48.286;8.484;2022-10-13T06:43:05;94523.53;;;8.58;100.00
39739;BME280;25422;48.286;8.484;2022-10-13T06:45:39;94519.06;;;8.69;100.00
39739;BME280;25422;48.286;8.484;2022-10-13T06:48:04;94516.78;;;8.66;100.00
39739;BME280;25422;48.286;8.484;2022-10-13T06:50:30;94519.16;;;8.77;100.00
39739;BME280;25422;48.286;8.484;2022-10-13T06:52:56;94521.16;;;8.83;100.00
39739;BME280;25422;48.286;8.484;2022-10-13T06:55:21;94524.88;;;8.99;100.00
39739;BME280;25422;48.286;8.484;2022-10-13T06:57:47;94522.56;;;8.96;100.00
39739;BME280;25422;48.286;8.484;2022-10-13T07:00:12;94525.91;;;9.06;100.00
39739;BME280;25422;48.286;8.484;2022-10-13T07:02:38;94523.00;;;9.09;100.00
39739;BME280;25422;48.286;8.484;2022-10-13T07:05:04;94517.84;;;9.17;100.00
39739;BME280;25422;48.286;8.484;2022-10-13T07:07:29;94520.13;;;9.20;100.00
39739;BME280;25422;48.286;8.484;2022-10-13T07:09:54;94513.94;;;9.21;100.00
39739;BME280;25422;48.286;8.484;2022-10-13T07:12:20;94509.59;;;9.30;100.00
39739;BME280;25422;48.286;8.484;2022-10-13T07:14:46;94513.69;;;9.33;100.00
39739;BME280;25422;48.286;8.484;2022-10-13T07:17:12;94517.63;;;9.37;100.00
39739;BME280;25422;48.286;8.484;2022-10-13T07:19:37;94513.47;;;9.26;100.00
39739;BME280;25422;48.286;8.484;2022-10-13T07:22:03;94521.41;;;9.42;100.00
39739;BME280;25422;48.286;8.484;2022-10-13T07:24:28;94519.31;;;9.46;100.00
39739;BME280;25422;48.286;8.484;2022-10-13T07:26:53;94511.19;;;9.49;100.00
39739;BME280;25422;48.286;8.484;2022-10-13T07:29:19;94512.25;;;9.65;100.00
39739;BME280;25422;48.286;8.484;2022-10-13T07:31:45;94516.22;;;9.77;100.00
39739;BME280;25422;48.286;8.484;2022-10-13T07:34:11;94518.75;;;9.95;100.00
39739;BME280;25422;48.286;8.484;2022-10-13T07:36:36;94509.97;;;9.70;100.00
39739;BME280;25422;48.286;8.484;2022-10-13T07:39:05;94511.06;;;9.59;100.00
39739;BME280;25422;48.286;8.484;2022-10-13T07:41:31;94510.72;;;9.54;100.00
39739;BME280;25422;48.286;8.484;2022-10-13T07:43:56;94505.66;;;9.52;100.00
39739;BME280;25422;48.286;8.484;2022-10-13T07:46:22;94503.13;;;9.69;100.00
39739;BME280;25422;48.286;8.484;2022-10-13T07:48:48;94508.84;;;9.72;100.00
39739;BME280;25422;48.286;8.484;2022-10-13T07:51:13;94503.75;;;9.97;100.00
39739;BME280;25422;48.286;8.484;2022-10-13T07:53:40;94501.81;;;10.07;100.00
39739;BME280;25422;48.286;8.484;2022-10-13T07:56:10;94504.47;;;10.24;100.00
39739;BME280;25422;48.286;8.484;2022-10-13T07:58:37;94503.09;;;10.38;100.00
39739;BME280;25422;48.286;8.484;2022-10-13T08:01:03;94506.13;;;10.33;100.00
39739;BME280;25422;48.286;8.484;2022-10-13T08:03:29;94498.31;;;10.41;100.00
39739;BME280;25422;48.286;8.484;2022-10-13T08:05:58;94496.22;;;10.53;100.00
39739;BME280;25422;48.286;8.484;2022-10-13T08:08:23;94502.59;;;10.59;100.00
39739;BME280;25422;48.286;8.484;2022-10-13T08:10:49;94499.38;;;10.73;100.00
39739;BME280;25422;48.286;8.484;2022-10-13T08:13:15;94494.47;;;10.70;100.00
39739;BME280;25422;48.286;8.484;2022-10-13T08:15:41;94500.97;;;10.58;100.00
39739;BME280;25422;48.286;8.484;2022-10-13T08:18:08;94501.66;;;10.76;100.00
39739;BME280;25422;48.286;8.484;2022-10-13T08:20:34;94503.28;;;10.61;100.00
39739;BME280;25422;48.286;8.484;2022-10-13T08:23:03;94494.78;;;10.67;100.00
39739;BME280;25422;48.286;8.484;2022-10-13T08:25:28;94493.28;;;10.73;100.00
39739;BME280;25422;48.286;8.484;2022-10-13T08:27:53;94489.06;;;10.72;100.00
39739;BME280;25422;48.286;8.484;2022-10-13T08:30:19;94484.97;;;10.86;100.00
39739;BME280;25422;48.286;8.484;2022-10-13T08:32:44;94490.53;;;10.83;100.00
39739;BME280;25422;48.286;8.484;2022-10-13T08:35:10;94485.63;;;10.79;100.00
39739;BME280;25422;48.286;8.484;2022-10-13T08:37:35;94484.31;;;10.92;100.00
39739;BME280;25422;48.286;8.484;2022-10-13T08:40:01;94478.94;;;10.93;100.00
39739;BME280;25422;48.286;8.484;2022-10-13T08:42:27;94475.31;;;11.11;100.00
39739;BME280;25422;48.286;8.484;2022-10-13T08:45:03;94477.25;;;11.17;100.00
39739;BME280;25422;48.286;8.484;2022-10-13T08:47:42;94470.53;;;11.23;100.00
39739;BME280;25422;48.286;8.484;2022-10-13T08:50:13;94479.50;;;11.53;100.00
39739;BME280;25422;48.286;8.484;2022-10-13T08:52:47;94475.72;;;11.56;100.00
39739;BME280;25422;48.286;8.484;2022-10-13T08:55:34;94486.78;;;11.74;100.00
39739;BME280;25422;48.286;8.484;2022-10-13T08:58:11;94474.94;;;11.95;100.00
39739;BME280;25422;48.286;8.484;2022-10-13T09:00:37;94486.72;;;11.99;100.00
39739;BME280;25422;48.286;8.484;2022-10-13T09:03:23;94483.13;;;12.31;100.00
39739;BME280;25422;48.286;8.484;2022-10-13T09:08:40;94478.91;;;12.54;100.00
39739;BME280;25422;48.286;8.484;2022-10-13T09:11:10;94478.91;;;12.30;100.00
39739;BME280;25422;48.286;8.484;2022-10-13T09:13:35;94481.34;;;12.32;100.00
39739;BME280;25422;48.286;8.484;2022-10-13T09:16:01;94482.38;;;12.23;100.00
39739;BME280;25422;48.286;8.484;2022-10-13T09:18:28;94482.13;;;12.32;100.00
39739;BME280;25422;48.286;8.484;2022-10-13T09:23:43;94486.31;;;12.19;100.00
39739;BME280;25422;48.286;8.484;2022-10-13T09:26:15;94488.03;;;12.03;100.00
39739;BME280;25422;48.286;8.484;2022-10-13T09:28:42;94491.16;;;11.98;100.00
39739;BME280;25422;48.286;8.484;2022-10-13T09:31:22;94488.38;;;12.00;100.00
39739;BME280;25422;48.286;8.484;2022-10-13T09:36:54;94478.19;;;12.37;100.00
39739;BME280;25422;48.286;8.484;2022-10-13T09:39:19;94480.25;;;12.50;100.00
39739;BME280;25422;48.286;8.484;2022-10-13T09:41:44;94476.97;;;12.47;100.00
39739;BME280;25422;48.286;8.484;2022-10-13T09:44:16;94481.66;;;12.84;100.00
39739;BME280;25422;48.286;8.484;2022-10-13T09:46:54;94473.16;;;13.35;100.00
39739;BME280;25422;48.286;8.484;2022-10-13T09:59:42;94458.56;;;13.55;100.00
39739;BME280;25422;48.286;8.484;2022-10-13T10:02:23;94474.03;;;13.50;100.00
39739;BME280;25422;48.286;8.484;2022-10-13T10:04:51;94480.94;;;13.66;100.00
39739;BME280;25422;48.286;8.484;2022-10-13T10:07:21;94469.72;;;13.34;100.00
39739;BME280;25422;48.286;8.484;2022-10-13T10:09:53;94467.19;;;13.26;100.00
39739;BME280;25422;48.286;8.484;2022-10-13T10:12:22;94474.59;;;13.22;100.00
39739;BME280;25422;48.286;8.484;2022-10-13T10:14:51;94477.47;;;13.36;100.00
39739;BME280;25422;48.286;8.484;2022-10-13T10:17:35;94481.84;;;13.20;100.00
39739;BME280;25422;48.286;8.484;2022-10-13T10:23:20;94476.69;;;13.27;100.00
39739;BME280;25422;48.286;8.484;2022-10-13T10:25:50;94472.84;;;13.38;100.00
39739;BME280;25422;48.286;8.484;2022-10-13T10:31:35;94459.22;;;13.34;100.00
39739;BME280;25422;48.286;8.484;2022-10-13T10:34:27;94465.16;;;13.28;100.00
39739;BME280;25422;48.286;8.484;2022-10-13T10:39:42;94454.28;;;13.69;100.00
39739;BME280;25422;48.286;8.484;2022-10-13T10:42:23;94459.56;;;14.21;100.00
39739;BME280;25422;48.286;8.484;2022-10-13T10:44:53;94452.75;;;14.63;100.00
39739;BME280;25422;48.286;8.484;2022-10-13T10:47:24;94452.75;;;14.84;100.00
39739;BME280;25422;48.286;8.484;2022-10-13T10:49:56;94452.03;;;14.97;100.00
39739;BME280;25422;48.286;8.484;2022-10-13T10:52:36;94457.59;;;15.31;100.00
39739;BME280;25422;48.286;8.484;2022-10-13T10:55:14;94446.56;;;15.21;100.00
39739;BME280;25422;48.286;8.484;2022-10-13T10:58:02;94447.03;;;15.31;100.00
39739;BME280;25422;48.286;8.484;2022-10-13T11:00:32;94448.28;;;15.35;100.00
39739;BME280;25422;48.286;8.484;2022-10-13T11:03:07;94442.84;;;15.43;100.00
39739;BME280;25422;48.286;8.484;2022-10-13T11:06:02;94443.06;;;15.42;100.00
39739;BME280;25422;48.286;8.484;2022-10-13T11:08:48;94441.34;;;15.62;100.00
39739;BME280;25422;48.286;8.484;2022-10-13T11:13:52;94433.97;;;16.34;100.00
39739;BME280;25422;48.286;8.484;2022-10-13T11:16:30;94436.13;;;16.73;100.00
39739;BME280;25422;48.286;8.484;2022-10-13T11:18:59;94426.75;;;16.70;100.00
39739;BME280;25422;48.286;8.484;2022-10-13T11:40:16;94385.56;;;17.88;97.07
39739;BME280;25422;48.286;8.484;2022-10-13T11:42:52;94375.84;;;17.68;100.00
39739;BME280;25422;48.286;8.484;2022-10-13T11:45:37;94379.72;;;17.66;100.00
39739;BME280;25422;48.286;8.484;2022-10-13T11:56:51;94358.78;;;18.48;95.03
39739;BME280;25422;48.286;8.484;2022-10-13T12:02:09;94360.47;;;18.04;97.42
39739;BME280;25422;48.286;8.484;2022-10-13T12:04:37;94361.00;;;18.19;96.94
39739;BME280;25422;48.286;8.484;2022-10-13T12:07:07;94356.53;;;18.13;100.00
39739;BME280;25422;48.286;8.484;2022-10-13T12:09:35;94355.13;;;18.11;97.13
39739;BME280;25422;48.286;8.484;2022-10-13T12:12:12;94350.25;;;17.62;97.98
39739;BME280;25422;48.286;8.484;2022-10-13T12:14:41;94356.69;;;17.80;94.97
39739;BME280;25422;48.286;8.484;2022-10-13T12:20:03;94353.66;;;17.76;93.82
39739;BME280;25422;48.286;8.484;2022-10-13T12:22:52;94340.06;;;18.43;83.95
39739;BME280;25422;48.286;8.484;2022-10-13T12:25:19;94338.88;;;19.40;77.55
39739;BME280;25422;48.286;8.484;2022-10-13T12:27:53;94330.06;;;19.02;78.66
39739;BME280;25422;48.286;8.484;2022-10-13T12:30:32;94332.63;;;17.88;84.34
39739;BME280;25422;48.286;8.484;2022-10-13T12:33:03;94320.63;;;17.85;83.53
39739;BME280;25422;48.286;8.484;2022-10-13T12:35:41;94320.16;;;17.50;90.13
39739;BME280;25422;48.286;8.484;2022-10-13T12:38:18;94313.50;;;17.27;91.51
39739;BME280;25422;48.286;8.484;2022-10-13T12:40:48;94315.69;;;17.44;89.53
39739;BME280;25422;48.286;8.484;2022-10-13T12:43:21;94316.75;;;17.23;93.68
39739;BME280;25422;48.286;8.484;2022-10-13T12:45:49;94319.66;;;17.01;93.84
39739;BME280;25422;48.286;8.484;2022-10-13T12:48:33;94318.84;;;16.74;94.55
39739;BME280;25422;48.286;8.484;2022-10-13T12:51:26;94316.00;;;16.82;93.87
39739;BME280;25422;48.286;8.484;2022-10-13T12:53:52;94318.84;;;17.00;93.46
39739;BME280;25422;48.286;8.484;2022-10-13T12:56:25;94325.97;;;16.93;97.54
39739;BME280;25422;48.286;8.484;2022-10-13T12:58:52;94317.22;;;16.66;97.93
39739;BME280;25422;48.286;8.484;2022-10-13T13:01:31;94318.25;;;16.72;98.37
39739;BME280;25422;48.286;8.484;2022-10-13T13:10:21;94340.56;;;15.67;100.00
39739;BME280;25422;48.286;8.484;2022-10-13T13:12:48;94343.03;;;15.33;100.00
39739;BME280;25422;48.286;8.484;2022-10-13T13:17:50;94347.03;;;15.23;100.00
39739;BME280;25422;48.286;8.484;2022-10-13T13:20:26;94344.91;;;15.05;100.00
39739;BME280;25422;48.286;8.484;2022-10-13T13:22:53;94332.69;;;14.97;100.00
39739;BME280;25422;48.286;8.484;2022-10-13T13:25:18;94328.25;;;15.04;100.00
39739;BME280;25422;48.286;8.484;2022-10-13T13:27:44;94327.13;;;15.13;100.00
39739;BME280;25422;48.286;8.484;2022-10-13T13:30:17;94333.53;;;15.04;100.00
39739;BME280;25422;48.286;8.484;2022-10-13T13:32:43;94332.19;;;14.87;100.00
39739;BME280;25422;48.286;8.484;2022-10-13T13:35:09;94326.09;;;14.79;100.00
39739;BME280;25422;48.286;8.484;2022-10-13T13:37:38;94333.03;;;14.87;100.00
39739;BME280;25422;48.286;8.484;2022-10-13T13:40:13;94326.09;;;14.79;100.00
39739;BME280;25422;48.286;8.484;2022-10-13T13:42:38;94330.81;;;14.62;100.00
39739;BME280;25422;48.286;8.484;2022-10-13T13:45:04;94325.22;;;14.72;100.00
39739;BME280;25422;48.286;8.484;2022-10-13T13:47:30;94332.50;;;14.70;100.00
39739;BME280;25422;48.286;8.484;2022-10-13T13:49:56;94335.22;;;14.83;100.00
39739;BME280;25422;48.286;8.484;2022-10-13T13:52:23;94327.81;;;14.94;100.00
39739;BME280;25422;48.286;8.484;2022-10-13T13:54:59;94319.91;;;14.94;100.00
39739;BME280;25422;48.286;8.484;2022-10-13T13:57:25;94319.44;;;15.18;100.00
39739;BME280;25422;48.286;8.484;2022-10-13T13:59:54;94317.88;;;14.96;100.00
39739;BME280;25422;48.286;8.484;2022-10-13T14:02:20;94311.56;;;14.90;100.00
39739;BME280;25422;48.286;8.484;2022-10-13T14:04:46;94311.09;;;15.15;100.00
39739;BME280;25422;48.286;8.484;2022-10-13T14:07:12;94311.31;;;15.13;100.00
39739;BME280;25422;48.286;8.484;2022-10-13T14:09:37;94321.88;;;15.20;100.00
39739;BME280;25422;48.286;8.484;2022-10-13T14:12:04;94329.47;;;15.01;100.00
39739;BME280;25422;48.286;8.484;2022-10-13T14:14:30;94326.41;;;14.98;100.00
39739;BME280;25422;48.286;8.484;2022-10-13T14:16:57;94331.06;;;14.96;100.00
39739;BME280;25422;48.286;8.484;2022-10-13T14:19:23;94322.59;;;14.72;100.00
39739;BME280;25422;48.286;8.484;2022-10-13T14:21:48;94318.19;;;14.58;100.00
39739;BME280;25422;48.286;8.484;2022-10-13T14:24:16;94310.97;;;14.38;100.00
39739;BME280;25422;48.286;8.484;2022-10-13T14:26:42;94309.25;;;14.30;100.00
39739;BME280;25422;48.286;8.484;2022-10-13T14:29:07;94308.06;;;14.33;100.00
39739;BME280;25422;48.286;8.484;2022-10-13T14:31:33;94300.50;;;14.45;100.00
39739;BME280;25422;48.286;8.484;2022-10-13T14:33:58;94301.03;;;14.40;100.00
39739;BME280;25422;48.286;8.484;2022-10-13T14:36:26;94309.38;;;14.44;100.00
39739;BME280;25422;48.286;8.484;2022-10-13T14:38:52;94314.25;;;14.47;100.00